< < Back
Terminal Aerodrome Forecast


Current Version              Previous Versions:   1  2  3  4  5  6  7  8  9  

Terminal Aerodrome Forecast

279
FTUS42 KFFC 060520
TAFMCN
TAF
KMCN 060520Z 0606/0706 00000KT P6SM SKC
     FM061600 08006KT P6SM FEW250
     FM061700 08006KT P6SM FEW050
     FM070000 09003KT P6SM SKC
     FM070100 00000KT P6SM SKC=



Latest METAR

685
SAUS80 KWBC 061700 RRA
MTRMCN
METAR KMCN 061653Z 08010KT 10SM CLR 26/13 A3017 RMK AO2 SLP215
T02610128


USA.gov is the U.S. government's official web portal to all federal, state and local government web resources and services.